Weather observations for the past three days for
Vance Brand Airport
Imperial (Metric)
Date Time (mdt) Wind (mph) Vis. (mi.) Weather Sky Cond. Temperature (ºF) Relative Humidity Wind Chill (°F) Heat Index (°F) Pressure Precipitation (in)
Air Dwpt 6 hour altimeter (in) sea level (mb) 1 hr 3 hr 6 hr
Max. Min.
02 16:15 SE 7 10.00 Fair CLR 72.7 9.3 8% 30.06 0.0
02 15:55 E 10 10.00 Fair CLR 72 9 9% 30.07 0.0
02 15:35 E 9 G 16 7.00 Fair CLR 70.9 9.3 9% 30.08 0.0
02 15:15 E 13 G 20 7.00 Fair CLR 71.8 10.9 9% 30.09 0.0
02 14:55 E 8 10.00 Fair CLR 70.7 9.1 9% 30.1 0.0
02 14:35 NE 9 7.00 Fair CLR 70.5 10.8 10% 30.11 0.0
02 14:15 E 8 7.00 Fair CLR 70.2 11.5 10% 30.11 0.0
02 13:55 E 3 7.00 Fair CLR 68.9 11.5 11% 30.12 0.0
02 13:35 Calm 10.00 Fair CLR 68 11.3 11% 30.13 0.0
02 13:15 Calm 7.00 Fair CLR 68 12 11% 30.13 0.0
02 12:55 S 5 7.00 Fair CLR 67.3 12.9 12% 30.14 0.0
02 12:35 E 7 10.00 Fair CLR 67.1 13.1 12% 30.15 0.0
02 12:15 S 6 7.00 Fair CLR 65.5 12.7 13% 30.16 0.0
02 11:55 E 8 7.00 Fair CLR 64.9 12.9 13% 30.17 0.0
02 11:35 SE 7 10.00 Fair CLR 64.6 12.4 13% 30.18 0.0
02 11:15 NE 7 7.00 Fair CLR 64.2 12.2 13% 30.18 0.0
02 10:55 NE 6 7.00 Fair CLR 63 10.8 13% 30.19 0.0
02 10:35 E 5 10.00 Fair CLR 62.2 12.4 14% 30.19 0.0
02 10:15 E 8 7.00 Fair CLR 62.1 13.5 15% 30.19 0.0
02 09:55 E 3 7.00 Fair CLR 60.8 19.2 20% 30.2 0.0
02 09:35 E 3 7.00 Fair CLR 57.9 23.7 27% 30.2 0.0
02 09:15 Calm 5.00 Fair with Haze CLR 54 23.7 31% 30.21 0.0
02 08:55 Calm 5.00 Fair with Haze CLR 51.6 23.7 34% 30.21 0.0
02 08:35 Calm 5.00 Fair with Haze CLR 49.5 23.7 36% 30.21 0.0
02 08:15 Calm 4.00 Fair with Haze CLR 46.4 23.4 40% 30.22 0.0
02 07:55 S 3 5.00 Fair with Haze CLR 45 24.1 44% 30.22 0.0
02 07:35 Calm 4.00 Fair with Haze CLR 42.1 24.3 49% 30.22 0.0
02 07:15 Calm 5.00 Fair with Haze CLR 37.9 24.3 58% 30.22 0.0
02 06:55 Calm 5.00 Fair with Haze CLR 34.2 22.6 63% 30.22 0.0
02 06:35 Calm 5.00 Fair with Haze CLR 32.7 22.1 65% 30.22 0.0
02 06:15 Calm 4.00 Fair with Haze CLR 32.2 22.6 68% 30.21 0.0
02 05:55 Calm 7.00 Fair CLR 30.2 20.5 44.6 30.2 67% 30.21 0.0
02 05:35 Calm 7.00 Fair CLR 33.3 22.1 64% 30.21 0.0
02 05:15 Calm 7.00 Fair CLR 32.9 22.1 64% 30.21 0.0
02 04:55 Calm 7.00 Fair CLR 34 21.4 60% 30.21 0.0
02 04:35 Calm 7.00 Fair CLR 37 21.9 54% 30.21 0.0
02 04:15 Calm 7.00 Fair CLR 39.9 22.1 49% 30.2 0.0
02 03:55 Calm 7.00 Fair CLR 40.1 22.8 50% 30.2 0.0
02 03:35 Calm 7.00 Fair CLR 39.4 23 52% 30.19 0.0
02 03:15 E 5 5.00 Fair with Haze CLR 39.6 21.9 49% 37 30.19 0.0
02 02:55 W 6 10.00 Fair CLR 39.9 18.9 43% 36 30.18 0.0
02 02:35 W 6 10.00 Fair CLR 42.4 18.9 39% 39 30.19 0.0
02 02:15 W 6 7.00 Fair CLR 42.3 19.2 40% 39 30.19 0.0
02 01:55 W 7 10.00 Fair CLR 43 20.3 40% 39 30.19 0.0
02 01:35 W 7 10.00 Fair CLR 41.9 20.8 43% 38 30.2 0.0
02 01:15 W 7 10.00 Fair CLR 41.9 19.9 41% 38 30.2 0.0
02 00:55 W 7 10.00 Fair CLR 41.7 19.4 41% 38 30.2 0.0
02 00:35 NW 6 10.00 Fair CLR 42.8 19.4 39% 40 30.21 0.0
02 00:15 W 7 10.00 Fair CLR 43.5 19.8 39% 40 30.21 0.0
01 23:55 W 6 10.00 Fair CLR 43.3 20.3 62.8 41.4 40% 40 30.21 0.0
01 23:35 W 5 10.00 Partly Cloudy SCT110 44.1 19.8 38% 42 30.2 0.0
01 23:15 W 3 10.00 Partly Cloudy SCT110 43.7 20.8 40% 30.2 0.0
01 22:55 W 3 10.00 Partly Cloudy SCT100 42.3 21.2 43% 30.2 0.0
01 22:35 Calm 10.00 Partly Cloudy SCT100 45.1 20.5 37% 30.2 0.0
01 22:15 W 3 7.00 Partly Cloudy SCT110 47.3 21.2 36% 30.19 0.0
01 21:55 Calm 7.00 Mostly Cloudy BKN110 49.8 22.1 34% 30.18 0.0
01 21:35 Calm 7.00 Mostly Cloudy BKN110 49.5 23 35% 30.18 0.0
01 21:15 N 5 7.00 Mostly Cloudy BKN120 48.9 23.5 37% 48 30.17 0.0
01 20:55 Calm 7.00 Mostly Cloudy BKN120 49.1 22.8 36% 30.16 0.0
01 20:35 NW 3 7.00 Mostly Cloudy BKN120 52.2 21.9 31% 30.15 0.0
01 20:15 N 3 7.00 Partly Cloudy SCT120 55.4 17.8 23% 30.13 0.0
01 19:55 Calm 7.00 Partly Cloudy SCT120 57.6 15.3 19% 30.13 0.0
01 19:15 N 3 7.00 Fair CLR 58.8 13.5 17% 30.11 0.0
01 18:55 NE 5 7.00 Fair CLR 59.9 13.3 16% 30.11 0.0
01 18:35 NE 7 5.00 Fair with Haze CLR 61 12.9 15% 30.11 0.0
01 18:15 NE 3 7.00 Partly Cloudy SCT110 61.9 13.6 15% 30.1 0.0
01 17:55 NE 6 G 20 7.00 Mostly Cloudy BKN110 63.7 13.3 64.4 56.3 14% 30.1 0.0
01 17:35 NW 7 10.00 Fair CLR 64.4 11.8 13% 30.09 0.0
01 17:15 NW 3 7.00 Partly Cloudy SCT120 63.5 12.2 13% 30.09 0.0
01 16:55 Calm 10.00 Fair CLR 63.5 11.5 13% 30.09 0.0
01 16:35 Calm 7.00 Fair CLR 62.6 11.5 13% 30.1 0.0
01 16:15 N 8 G 16 5.00 Fair with Haze CLR 63.5 12.9 14% 30.1 0.0
01 15:55 NE 3 7.00 Fair CLR 63.3 12.7 14% 30.11 0.0
01 15:35 SE 6 7.00 Fair CLR 62.1 12.2 14% 30.11 0.0
01 15:15 NE 9 7.00 Fair CLR 61.5 12.6 14% 30.12 0.0
01 14:55 NE 3 10.00 Fair CLR 61.7 12.9 15% 30.12 0.0
01 14:35 NE 13 G 20 10.00 Fair CLR 61.9 14.2 15% 30.13 0.0
01 14:15 NW 3 7.00 Fair CLR 60.1 15.1 17% 30.13 0.0
01 13:55 NE 9 G 17 7.00 Fair CLR 60.3 15.3 17% 30.14 0.0
01 13:35 N 3 5.00 Fair with Haze CLR 60.1 15.6 17% 30.14 0.0
01 13:15 N 3 7.00 Fair CLR 59.2 16.3 19% 30.15 0.0
01 12:55 N 7 7.00 Fair CLR 59 18.7 21% 30.15 0.0
01 12:35 S 5 10.00 Fair CLR 57.6 18.1 21% 30.15 0.0
01 12:15 NE 5 5.00 Fair with Haze CLR 57 18.9 22% 30.15 0.0
01 11:55 N 5 7.00 Fair CLR 57.4 19.9 57.4 28.6 23% 30.16 0.0
01 11:35 E 6 7.00 Fair CLR 55.9 18.7 23% 30.17 0.0
01 11:15 SE 5 5.00 Fair with Haze CLR 55.6 19.4 24% 30.17 0.0
01 10:55 Calm 5.00 Fair with Haze CLR 55.6 18.7 24% 30.17 0.0
01 10:35 NE 7 5.00 Fair with Haze CLR 54.7 19.9 26% 30.18 0.0
01 10:15 NW 3 5.00 Fair with Haze CLR 53.6 18.9 25% 30.17 0.0
01 09:55 Calm 7.00 Fair CLR 52.7 18.5 26% 30.17 0.0
01 09:35 N 3 5.00 Fair with Haze CLR 52.2 23.7 33% 30.17 0.0
01 09:15 Calm 5.00 Fair with Haze CLR 50.2 23 34% 30.18 0.0
01 08:55 Calm 5.00 Fair with Haze CLR 49.1 25.5 40% 30.18 0.0
01 08:35 Calm 5.00 Fair with Haze CLR 47.3 25.9 43% 30.18 0.0
01 08:15 Calm 5.00 Fair with Haze CLR 44.6 25.9 48% 30.18 0.0
01 07:55 Calm 4.00 Fair with Haze CLR 42.4 26.4 53% 30.18 0.0
01 07:35 SW 3 5.00 Fair with Haze CLR 39.6 28.9 66% 30.18 0.0
01 07:15 SW 3 4.00 Fair with Haze CLR 35.1 28.2 76% 30.18 0.0
01 06:55 SW 3 5.00 Fair with Haze CLR 32 25.5 77% 30.18 0.0
01 06:35 Calm 5.00 Fair with Haze CLR 30.4 24.8 80% 30.17 0.0
01 06:15 Calm 7.00 Fair CLR 28.6 23 80% 30.17 0.0
01 05:55 Calm 7.00 Fair CLR 28.6 23.9 34.5 28.4 83% 30.17 0.0
01 05:35 W 3 7.00 Fair CLR 29.3 24.4 82% 30.17 0.0
01 05:15 Calm 7.00 Fair CLR 28.6 23.2 80% 30.17 0.0
01 04:55 Calm 7.00 Fair CLR 30.7 23.2 74% 30.17 0.0
01 04:35 SW 3 7.00 Fair CLR 30 24.8 81% 30.17 0.0
01 04:15 SW 3 7.00 Fair CLR 29.1 25.5 86% 30.17 0.0
01 03:55 W 3 7.00 Fair CLR 29.8 24.1 79% 30.17 0.0
01 03:35 W 3 7.00 Fair CLR 31.1 26.1 82% 30.17 0.0
01 03:15 Calm 10.00 Fair CLR 31.5 25 77% 30.17 0.0
01 02:55 W 3 7.00 Fair CLR 31.3 25.9 80% 30.17 0.0
01 02:35 W 5 7.00 Fair CLR 31.1 25.7 80% 27 30.17 0.0
01 02:15 SW 3 7.00 Fair CLR 31.5 26.4 82% 30.18 0.0
01 01:55 Calm 10.00 Fair CLR 32.9 26.4 77% 30.18 0.0
01 01:35 Calm 10.00 Fair CLR 32.9 26.6 78% 30.19 0.0
01 01:15 W 3 7.00 Fair CLR 34.2 27.5 77% 30.19 0.0
01 00:55 Calm 7.00 Fair CLR 33.6 27.5 78% 30.19 0.0
01 00:35 Calm 7.00 Fair CLR 34 29.3 83% 30.2 0.0
01 00:15 W 6 7.00 Fair CLR 34.2 28 78% 30 30.2 0.0
30 23:55 Calm 10.00 Fair CLR 35.4 29.5 47.7 35.4 79% 30.2 0.0
30 23:35 SW 3 10.00 Fair CLR 36.9 30 76% 30.2 0.0
30 23:15 SW 3 7.00 Fair CLR 37.4 29.5 73% 30.2 0.0
30 22:35 W 3 10.00 Fair CLR 38.5 29.3 70% 30.2 0.0
30 22:15 Calm 7.00 Fair CLR 37.9 29.1 71% 30.19 0.0
30 21:55 W 3 10.00 Fair CLR 38.1 29.3 71% 30.19 0.0
30 21:35 Calm 10.00 Fair CLR 37 29.1 73% 30.19 0.0
30 21:15 Calm 10.00 Fair CLR 40.3 30.2 67% 30.18 0.0
30 20:55 W 5 7.00 Fair CLR 39.6 30.2 69% 37 30.17 0.0
30 20:35 W 5 7.00 Fair CLR 43.2 30.7 62% 41 30.17 0.0
30 20:15 Calm 10.00 Partly Cloudy SCT080 43.9 31.1 61% 30.17 0.0
30 19:55 W 3 10.00 Overcast OVC080 45.9 30.2 54% 30.16 0.0
30 19:35 W 3 7.00 Overcast SCT070 OVC080 46 31.3 56% 30.16 0.0
30 19:15 W 3 5.00 Overcast with Haze SCT055 BKN070 OVC080 46.6 30.2 53% 30.16 0.0
30 18:55 W 5 7.00 Overcast SCT055 OVC080 47.3 30.2 52% 46 30.16 0.0
30 18:35 W 5 7.00 Overcast OVC080 47.3 30 51% 46 30.15 0.0
30 18:15 W 3 10.00 Overcast OVC070 47.3 30.2 52% 30.15 0.0
30 17:55 W 3 7.00 Overcast SCT050 OVC070 47.3 31.6 49.3 45 55% 30.15 0.0
30 17:35 Calm 7.00 Mostly Cloudy BKN055 BKN070 46.9 31.8 56% 30.15 0.0
30 17:15 Calm 10.00 Overcast OVC049 45.7 32.2 59% 30.15 0.0
30 16:55 Calm 7.00 Overcast SCT038 OVC049 45.3 32 60% 30.15 0.0
30 16:35 Calm 10.00 Light Rain BKN038 OVC047 45.5 32.7 61% 30.16 0.0
30 16:15 E 6 10.00 Drizzle OVC042 46.9 31.1 54% 45 30.16 0.0
30 15:55 E 5 7.00 Overcast OVC042 47.5 29.3 49% 46 30.16 0.0
30 15:35 E 5 10.00 Overcast BKN042 OVC050 48.2 29.3 48% 47 30.16 0.0
30 15:15 E 5 7.00 Overcast BKN042 OVC050 48.2 28.6 47% 47 30.16 0.0
30 14:55 Calm 4.00 Overcast with Haze BKN044 OVC050 48.2 28.4 46% 30.17 0.0
30 14:35 Calm 10.00 Overcast BKN044 OVC050 47.3 28.4 48% 0 0.0
30 14:15 NE 7 7.00 Overcast OVC048 48.2 28.4 46% 46 30.17 0.0
30 13:55 E 6 7.00 Overcast OVC045 47.7 27.7 46% 45 30.17 0.0
30 13:35 E 3 7.00 Overcast OVC047 47.5 27.3 46% 30.17 0.0
30 13:15 E 6 7.00 Overcast BKN045 OVC055 47.8 27.5 45% 46 30.17 0.0
30 12:55 N 7 7.00 Overcast BKN047 BKN050 OVC065 48.2 27.3 44% 46 30.17 0.0
30 12:35 NE 8 7.00 Overcast SCT045 SCT050 OVC065 49.3 27.7 43% 46 30.18 0.0
30 12:15 E 5 7.00 Overcast BKN045 OVC065 48.4 27.3 44% 47 30.18 0.0
30 11:55 NE 3 7.00 Overcast SCT043 BKN050 OVC065 48.2 27.5 48.2 40.3 45% 30.18 0.0
30 11:35 NE 7 7.00 Overcast OVC050 47.3 28.6 48% 44 30.19 0.0
30 11:15 NE 8 7.00 Overcast OVC048 46.9 29.3 50% 44 30.2 0.0
30 10:55 N 10 10.00 Overcast SCT041 OVC048 46.4 28.4 50% 42 30.2 0.0
30 10:35 NE 7 5.00 Overcast with Haze SCT041 OVC046 46 26.8 47% 43 30.2 0.0
30 10:15 NE 9 10.00 Overcast OVC046 45.5 27.3 49% 41 30.2 0.0
30 09:55 NE 5 5.00 Overcast with Haze OVC046 45.7 27.7 50% 44 30.2 0.0
30 09:35 E 7 10.00 Overcast BKN046 OVC065 44.8 27.1 50% 41 30.2 0.0
30 09:15 NE 7 7.00 Overcast SCT050 OVC065 44.1 26.6 50% 41 30.21 0.0
30 08:55 NE 7 7.00 Overcast SCT045 OVC050 43.7 27.3 53% 40 30.2 0.0
30 08:35 NE 9 7.00 Overcast OVC050 43.7 26.8 51% 39 30.21 0.0
30 08:15 NE 10 7.00 Overcast OVC048 43.7 26.2 50% 39 30.21 0.0
30 07:55 NE 8 4.00 Overcast with Haze OVC048 43.2 26.6 52% 39 30.2 0.0
30 07:35 NE 10 7.00 Overcast OVC046 43.7 27.1 52% 39 30.2 0.0
30 07:15 N 5 7.00 Overcast OVC044 43.2 28.9 57% 41 30.19 0.0
30 06:55 N 5 7.00 Overcast OVC044 42.8 29.1 59% 41 30.18 0.0
30 06:35 N 3 7.00 Overcast OVC042 41.9 29.8 62% 30.18 0.0
30 06:15 N 5 10.00 Mostly Cloudy SCT040 BKN050 BKN090 40.5 29.3 65% 38 30.17 0.0
30 05:55 N 5 10.00 Partly Cloudy SCT048 SCT090 41 29.3 46.6 41 63% 38 30.17 0.0
30 05:35 N 6 10.00 Fair CLR 41.9 30.2 63% 39 30.17 0.0
30 05:15 N 7 10.00 Partly Cloudy SCT070 42.8 30.4 62% 39 30.17 0.0
30 04:55 N 7 7.00 Partly Cloudy SCT080 43.3 30.7 61% 40 30.17 0.0
30 04:35 N 8 7.00 Mostly Cloudy SCT065 BKN080 43.7 30.7 60% 40 30.17 0.0
30 04:15 N 7 7.00 Mostly Cloudy BKN065 BKN080 44.1 31.1 60% 41 30.17 0.0
30 03:55 N 8 10.00 Partly Cloudy SCT080 44.4 30.2 58% 40 30.17 0.0
30 03:35 N 5 10.00 Fair CLR 44.6 31.3 60% 43 30.17 0.0
30 03:15 NW 6 7.00 Fair CLR 45 30.9 58% 42 30.16 0.0
30 02:55 N 7 10.00 Partly Cloudy SCT070 44.6 32.4 62% 41 30.16 0.0
30 02:35 NW 12 10.00 Mostly Cloudy SCT070 BKN075 43.9 32.9 65% 38 30.15 0.0
30 02:15 NW 13 7.00 Partly Cloudy SCT070 44.1 33.1 65% 38 30.16 0.0
30 01:55 NW 14 10.00 Partly Cloudy SCT070 44.1 33.3 66% 38 30.16 0.0
30 01:35 NW 8 7.00 Partly Cloudy SCT095 44.6 34 66% 41 30.17 0.0
30 01:15 NW 9 10.00 Mostly Cloudy BKN095 44.1 34.2 68% 40 30.17 0.0
30 00:55 NW 8 7.00 Partly Cloudy SCT095 44.2 34.7 69% 40 30.18 0.0
30 00:35 NW 7 7.00 Fair CLR 44.2 34 67% 41 30.18 0.0
30 00:15 NW 9 10.00 Partly Cloudy SCT070 45.7 32.9 61% 42 30.18 0.0
29 23:55 N 8 10.00 Mostly Cloudy BKN070 46.6 32.9 53.1 46 59% 43 30.18 0.0
29 23:35 NW 7 10.00 Partly Cloudy SCT070 46.8 34.7 63% 44 30.18 0.0
29 23:15 NW 6 10.00 Mostly Cloudy BKN060 BKN070 46.8 35.2 64% 44 30.19 0.0
29 22:55 NW 5 10.00 Partly Cloudy SCT060 46.9 34.9 63% 45 30.19 0.0
29 22:35 NW 8 10.00 Partly Cloudy SCT070 46.9 34.7 63% 44 30.19 0.0
29 21:55 NW 3 10.00 Overcast OVC070 46.4 34.7 64% 30.17 0.0
29 21:35 NW 3 10.00 Overcast OVC060 46.6 34 62% 30.17 0.0
29 21:15 Calm 5.00 Mostly Cloudy with Haze SCT060 BKN070 48.2 31.6 53% 30.17 0.0
29 20:35 N 5 7.00 Overcast OVC060 48.2 35.4 61% 47 0 0.0
29 20:15 NW 5 7.00 Mostly Cloudy BKN060 BKN070 48.2 36 63% 47 30.15 0.0
29 19:55 NW 6 10.00 Partly Cloudy SCT070 48 36.7 65% 46 30.13 0.0
29 19:35 NW 5 7.00 Mostly Cloudy BKN070 47.7 36.5 65% 46 30.13 0.0
29 19:15 W 9 7.00 Partly Cloudy SCT070 48.4 36.5 64% 45 30.12 0.0
29 18:55 Calm 7.00 Partly Cloudy SCT050 SCT070 SCT090 50 33.3 53% 30.11 0.0
29 18:35 Calm 10.00 Light Drizzle SCT027 SCT032 BKN037 49.6 32 51% 30.1 0.0
29 18:15 NE 9 G 17 10.00 Light Rain SCT028 BKN036 OVC050 49.1 33.6 55% 46 30.12 0.0
29 17:55 W 8 7.00 Mostly Cloudy BKN055 BKN065 53.6 28.6 57.4 48.4 38% 30.1 0.0
29 17:35 W 7 10.00 Light Rain SCT045 BKN050 53.8 29.5 39% 30.08 0.0
29 17:15 N 6 7.00 Overcast OVC055 53.8 29.3 39% 30.08 0.0
29 16:55 N 9 10.00 Mostly Cloudy SCT055 BKN075 BKN095 54.5 30.7 40% 30.08 0.0
29 16:35 W 5 7.00 Fair CLR 55.6 30.2 38% 30.06 0.0
Date Time (mdt) Wind (mph) Vis. (mi.) Weather Sky Cond. Air Dwpt Max. Min. Relative Humidity Wind Chill (°F) Heat Index (°F) altimeter (in) sea level (mb) 1 hr 3 hr 6 hr
6 hour
Temperature (ºF) Pressure Precipitation (in)